KLVL

Lawrenceville / Brunswick Municipal Airport

Lawrenceville, Virginia, USA
METAR KLVL 190455Z AUTO 00000KT 10SM CLR 20/20 A2988 RMK AO1 T02030198 402840202
Observed Flight Rules
Sep-19 @ 04:55 UTC (19 minutes ago) Visual Flight Rules
Visibility Clouds
10 miles
  • Clear skies
Temperatures Readings
Current 20°C / 68°F
Dewpoint 20°C / 68°F
Humidity 100%
Altimeter 29.88" Hg
Pressure 1012 hPa
Elevation 100
METAR KLVL 190455Z AUTO 00000KT 10SM CLR 20/20 A2988 RMK AO1 T02030198 402840202
Observed Flight Rules
Sep-19 @ 04:55 UTC
(19 minutes ago)
VFR
Clouds
  • Clear skies
Temperature Dewpoint
20°C / 68°F 20°C / 68°F
Humidity Altimeter Pressure
100% 29.88" Hg 1012 hPa